• Join FlightAware (Why Join?)
  • Login
  • US Flag 
01:17PM EDT


 

Airport Tracker/Info


-or-


 

Live Flight TrackerFlight Track Log ✈ SWA3939 ✈ 08-Apr-2014 ✈ KBUR - KSJC

Flight Track Log - Related Links

Times and Time Zones

All times are in EDT time to prevent confusion due to time zone crossing. See the SWA3939 flight status page for this flight to view local times or setup timezone preferences in your user account.

Time Position Orientation Groundspeed Altitude Reporting Facility
EDT Latitude Longitude Course Direction KTS MPH feet Rate Location/Type
08:45PM 34.1833 -118.3500 305° West 150 173 1,700  Level Southern California TRACON
08:48PM 34.2725 -118.5067 338° Northwest 284 327 10,000 2,580 Climbing Los Angeles Center
08:49PM 34.3444 -118.5561 330° Northwest 293 337 12,900 2,940 Climbing Los Angeles Center
08:50PM 34.4311 -118.6139 331° Northwest 353 406 16,100 3,480 Climbing Los Angeles Center
08:51PM 34.5419 -118.6872 331° Northwest 375 432 20,200 3,420 Climbing Los Angeles Center
08:52PM 34.6389 -118.7536 331° Northwest 399 459 23,200 2,820 Climbing Los Angeles Center
08:53PM 34.7400 -118.8200 332° Northwest 410 472 26,100 2,640 Climbing Los Angeles Center
08:54PM 34.7729 -118.8364 338° Northwest  Level FlightAware Approximate
08:54PM 34.8414 -118.8931 329° Northwest 426 490 28,700  Level Los Angeles Center
08:55PM 34.9369 -118.9742 325° Northwest 426 490 31,000 2,640 Climbing Los Angeles Center
08:57PM 35.0558 -119.0694 327° Northwest 426 490 34,200 2,400 Climbing Los Angeles Center
08:58PM 35.1500 -119.1486 326° Northwest 421 484 36,000 840 Climbing Los Angeles Center
08:59PM 35.2083 -119.2606 303° West 402 463 36,000  Level Los Angeles Center
09:00PM 35.2583 -119.3767 298° West 391 450 36,000  Level Los Angeles Center
09:01PM 35.3128 -119.4944 300° West 397 457 36,000  Level Los Angeles Center
09:02PM 35.3631 -119.6094 298° West 393 452 36,000  Level Los Angeles Center
09:03PM 35.4247 -119.7483 299° West 391 450 36,000  Level Los Angeles Center
09:04PM 35.4739 -119.8625 298° West 385 443 36,000  Level Los Angeles Center
09:05PM 35.5247 -119.9783 298° West 386 444 36,000  Level Los Angeles Center
09:06PM 35.5744 -120.0928 298° West 386 444 36,000  Level Los Angeles Center
09:07PM 35.6236 -120.2075 298° West 386 444 36,000  Level Los Angeles Center
09:07PM 35.6542 -120.2781 298° West 388 447 36,000  Level Oakland Center
09:08PM 35.7153 -120.3869 305° West 397 457 36,000  Level Oakland Center
09:09PM 35.7875 -120.4886 311° West 403 464 36,000  Level Oakland Center
09:10PM 35.8753 -120.6103 312° West 400 460 36,000 -120 Level Oakland Center
09:11PM 35.9492 -120.7108 312° West 399 459 35,800 -1,320 Descending Oakland Center
09:13PM 36.0225 -120.8128 312° West 399 459 33,300 -2,400 Descending Oakland Center
09:14PM 36.0961 -120.9164 311° West 400 460 31,000 -2,220 Descending Oakland Center
09:15PM 36.1678 -121.0158 312° West 393 452 28,800 -2,100 Descending Oakland Center
09:16PM 36.2386 -121.1133 312° West 386 444 26,700 -2,100 Descending Oakland Center
09:17PM 36.3081 -121.2106 312° West 380 437 24,600 -2,100 Descending Oakland Center
09:18PM 36.3744 -121.3064 311° West 372 428 22,500 -2,220 Descending Oakland Center
09:19PM 36.4531 -121.4169 311° West 359 413 20,200 -2,160 Descending Oakland Center
09:20PM 36.5303 -121.4906 323° Northwest 354 407 18,100 -2,220 Descending Oakland Center
09:21PM 36.6131 -121.5592 326° Northwest 356 410 15,700 -2,280 Descending Oakland Center
09:22PM 36.7033 -121.6017 339° North 358 412 13,500 -2,100 Descending Oakland Center
09:23PM 36.8025 -121.5933 North 360 414 11,500 -2,040 Descending Oakland Center
09:24PM 36.8950 -121.5858 North 350 403 9,400 -1,740 Descending Oakland Center
09:25PM 36.9911 -121.5761 North 350 403 8,000 -1,080 Descending Oakland Center
09:26PM 37.0617 -121.6133 337° Northwest 313 360 7,300 -1,200 Descending Oakland Center
09:27PM 37.1228 -121.6719 323° Northwest 273 314 5,600 -1,380 Descending Oakland Center
09:28PM 37.1881 -121.7422 319° Northwest 270 311 4,500 -1,320 Descending Oakland Center
09:29PM 37.2433 -121.8014 320° Northwest 267 307 2,900 -1,140 Descending Oakland Center
09:30PM 37.2936 -121.8567 319° Northwest 251 289 2,300 -840 Descending Oakland Center
09:31PM 37.3294 -121.8817 331° Northwest 185 213 1,300 -1,080 Descending Oakland Center
09:32PM 37.3483 -121.9197 302° West 148 170 200 -1,140 Descending Oakland Center
09:34PM 37.3627 -121.9291 332° Northwest  Level Estimated
09:41PM 37.3627 -121.9291 North  Level Estimated